Flight Track Log - Related Links

Times and Time Zones

All times are in EDT time to prevent confusion due to time zone crossing. See the SKW6492 flight status page for this flight to view local times or setup timezone preferences in your user account.

Time Position Orientation Groundspeed Altitude Reporting Facility
EDT Latitude Longitude Course Direction KTS MPH feet Rate Location/Type
Thu 09:59:57 PM 39.9167 -104.7000 346° North 183 211 6,800  Level Denver TRACON
Thu 10:00:57 PM 39.9667 -104.7000 360° North 231 266 8,400 1,500 Climbing Denver TRACON
Thu 10:01:57 PM 40.0500 -104.7000 360° North 269 310 9,800 1,450 Climbing Denver TRACON
Thu 10:02:00 PM 40.1650 -104.7711 347° North  Level FlightAware Approximate
Thu 10:02:57 PM 40.1167 -104.7167 349° North 296 341 11,300  Level Denver TRACON
Thu 10:03:00 PM 40.2708 -104.8029 347° North  Level FlightAware Approximate
Thu 10:04:00 PM 40.3763 -104.8365 346° North  Level FlightAware Approximate
Thu 10:04:26 PM 40.2550 -104.7306 356° North 319 367 13,600  Level Denver Center
Thu 10:05:00 PM 40.4815 -104.8716 346° North  Level FlightAware Approximate
Thu 10:05:40 PM 40.3478 -104.7519 350° North 344 396 14,500  Level Denver Center
Thu 10:06:43 PM 40.4725 -104.7814 350° North 367 422 15,500 1,104 Climbing Denver Center
Thu 10:07:45 PM 40.5819 -104.8050 351° North 377 434 16,800 1,161 Climbing Denver Center
Thu 10:08:47 PM 40.6858 -104.8281 350° North 372 428 17,900 1,065 Climbing Denver Center
Thu 10:09:49 PM 40.7925 -104.8681 344° North 356 410 19,000 677 Climbing Denver Center
Thu 10:10:51 PM 40.8775 -104.9575 322° Northwest 383 441 19,300 387 Climbing Denver Center
Thu 10:11:53 PM 40.9642 -105.0400 324° Northwest 387 445 19,800 927 Climbing Denver Center
Thu 10:12:54 PM 41.0561 -105.1297 324° Northwest 382 440 21,200 1,463 Climbing Denver Center
Thu 10:13:56 PM 41.1300 -105.2069 322° Northwest 360 414 22,800 1,258 Climbing Denver Center
Thu 10:14:58 PM 41.2158 -105.2917 323° Northwest 346 398 23,800 919 Climbing Denver Center
Thu 10:16:00 PM 41.2961 -105.3622 327° Northwest 357 411 24,700 823 Climbing Denver Center
Thu 10:17:02 PM 41.3806 -105.4203 333° Northwest 355 409 25,500 629 Climbing Denver Center
Thu 10:18:04 PM 41.4678 -105.5131 321° Northwest 359 413 26,000 145 Climbing Denver Center
Thu 10:19:06 PM 41.5478 -105.5933 323° Northwest 371 427 25,800 -578 Descending Denver Center
Thu 10:20:19 PM 41.6533 -105.7039 322° Northwest 428 493 24,700 -794 Descending Denver Center
Thu 10:21:22 PM 41.7647 -105.8178 323° Northwest 448 516 24,000 -339 Descending Denver Center
Thu 10:22:23 PM 41.8775 -105.9347 322° Northwest 456 525 24,000  Level Denver Center
Thu 10:23:25 PM 41.9725 -106.0333 322° Northwest 451 519 24,000  Level Denver Center
Thu 10:24:27 PM 42.0803 -106.1472 322° Northwest 443 510 24,000  Level Denver Center
Thu 10:25:29 PM 42.1700 -106.2422 322° Northwest 433 498 24,000  Level Denver Center
Thu 10:26:31 PM 42.2683 -106.3561 319° Northwest 420 483 24,000  Level Denver Center
Thu 10:27:32 PM 42.3358 -106.4717 308° West 409 471 24,000  Level Denver Center
Thu 10:28:34 PM 42.4058 -106.5825 311° West 405 466 24,000  Level Denver Center
Thu 10:29:36 PM 42.4903 -106.7064 313° West 401 461 24,000  Level Denver Center
Thu 10:30:38 PM 42.5631 -106.8139 313° West 403 464 24,000  Level Denver Center
Thu 10:31:51 PM 42.6472 -106.9383 313° West 400 460 24,000  Level Denver Center
Thu 10:32:53 PM 42.7319 -107.0636 313° West 401 461 24,000  Level Denver Center
Thu 10:33:55 PM 42.8167 -107.1881 313° West 401 461 24,000  Level Denver Center
Thu 10:34:47 PM 42.8808 -107.2819 313° West 401 461 24,000  Level Salt Lake Center
Thu 10:35:48 PM 42.9544 -107.3911 313° West 399 459 24,000  Level Salt Lake Center
Thu 10:36:50 PM 43.0297 -107.5033 313° West 400 460 24,000  Level Salt Lake Center
Thu 10:37:52 PM 43.1167 -107.6022 320° Northwest 407 468 24,000  Level Salt Lake Center
Thu 10:38:53 PM 43.2017 -107.7011 320° Northwest 403 464 24,000  Level Salt Lake Center
Thu 10:39:55 PM 43.3061 -107.8189 321° Northwest 405 466 24,000  Level Salt Lake Center
Thu 10:40:57 PM 43.3950 -107.9164 321° Northwest 409 471 24,000  Level Salt Lake Center
Thu 10:41:58 PM 43.4842 -108.0136 322° Northwest 409 471 24,000  Level Salt Lake Center
Thu 10:43:00 PM 43.5722 -108.1156 320° Northwest 412 474 24,000  Level Salt Lake Center
Thu 10:44:02 PM 43.6689 -108.2072 326° Northwest 423 487 24,000  Level Salt Lake Center
Thu 10:45:03 PM 43.7714 -108.2867 331° Northwest 423 487 24,000  Level Salt Lake Center
Thu 10:46:05 PM 43.8742 -108.3669 331° Northwest 423 487 24,000 -1,113 Level Salt Lake Center
Thu 10:47:07 PM 43.9786 -108.4489 331° Northwest 431 496 21,700 -3,000 Descending Salt Lake Center
Thu 10:48:09 PM 44.1042 -108.5511 330° Northwest 434 499 17,800 -3,317 Descending Salt Lake Center
Thu 10:49:10 PM 44.2058 -108.6314 330° Northwest 426 490 14,900 -2,976 Descending Salt Lake Center
Thu 10:50:12 PM 44.3019 -108.7094 330° Northwest 416 479 11,700 -2,371 Descending Salt Lake Center
Thu 10:51:14 PM 44.3944 -108.7839 330° Northwest 402 463 10,000 -823 Descending Salt Lake Center
Thu 10:52:16 PM 44.4642 -108.8389 331° Northwest 338 389 10,000 -537 Level Salt Lake Center
Thu 10:53:17 PM 44.5275 -108.8492 353° North 275 316 8,900 -927 Descending Salt Lake Center
Thu 10:54:19 PM 44.5747 -108.8817 334° Northwest 233 268 8,100 -1,171 Descending Salt Lake Center
Thu 10:55:20 PM 44.5703 -108.9411 264° West 183 211 6,500 -1,122 Descending Salt Lake Center
Thu 10:56:22 PM 44.5422 -108.9928 233° Southwest 165 190 5,800 -677 Descending Salt Lake Center

Login

Don't have an account? Register now (free) for customized features, flight alerts, and more!